Time;durP1;ratioP1;P1;durP2;ratioP2;P2;SDS_P1;SDS_P2;PMS_P1;PMS_P2;Temp;Humidity;BMP_temperature;BMP_pressure;BME280_temperature;BME280_humidity;BME280_pressure;Samples;Min_cycle;Max_cycle;Signal;HPM_P1;HPM_P2
2022/07/18 00:02:21;;;;;;;6.67;3.40;;;;;;;13.60;100.00;101774.88;7383892;19;20412;-61
2022/07/18 00:04:51;;;;;;;11.00;6.60;;;;;;;13.62;100.00;101768.09;7394366;19;20393;-62
2022/07/18 00:07:20;;;;;;;11.50;5.30;;;;;;;13.64;100.00;101771.63;7387038;19;20427;-62
2022/07/18 00:09:50;;;;;;;24.30;11.10;;;;;;;13.69;100.00;101756.28;7395029;19;20386;-61
2022/07/18 00:12:20;;;;;;;14.27;6.43;;;;;;;13.71;100.00;101738.19;7387648;19;20422;-63
2022/07/18 00:14:52;;;;;;;10.57;5.37;;;;;;;13.78;100.00;101711.72;7394323;19;20384;-61
2022/07/18 00:17:21;;;;;;;19.30;9.53;;;;;;;13.82;100.00;101697.16;7386534;19;20421;-61
2022/07/18 00:19:51;;;;;;;9.97;4.83;;;;;;;13.82;100.00;101666.03;7394898;19;20398;-61
2022/07/18 00:22:21;;;;;;;7.57;3.93;;;;;;;13.82;100.00;101666.03;7380234;19;20945;-61
2022/07/18 00:24:50;;;;;;;15.60;7.20;;;;;;;13.80;100.00;101647.84;7392939;19;20396;-62
2022/07/18 00:27:20;;;;;;;24.60;14.10;;;;;;;13.75;100.00;101662.31;7386323;19;20471;-62
2022/07/18 00:29:52;;;;;;;15.63;8.20;;;;;;;13.73;100.00;101680.38;7394468;19;20394;-61
2022/07/18 00:32:22;;;;;;;11.03;6.73;;;;;;;13.76;100.00;101675.31;7385242;19;21012;-60
2022/07/18 00:34:51;;;;;;;13.40;7.10;;;;;;;13.74;100.00;101666.59;7397714;19;20396;-60
2022/07/18 00:37:21;;;;;;;8.40;5.17;;;;;;;13.63;100.00;101681.69;7384559;19;20442;-62
2022/07/18 00:39:51;;;;;;;12.23;6.03;;;;;;;13.61;100.00;101706.69;7394013;19;20386;-61
2022/07/18 00:42:20;;;;;;;8.27;4.00;;;;;;;13.57;100.00;101715.13;7386963;19;20486;-62
2022/07/18 00:44:55;;;;;;;5.90;3.50;;;;;;;13.61;100.00;101701.50;7392760;19;20918;-62
2022/07/18 00:47:25;;;;;;;8.70;3.47;;;;;;;13.62;100.00;101692.91;7384575;19;20419;-61
2022/07/18 00:49:54;;;;;;;14.67;4.60;;;;;;;13.64;100.00;101688.66;7392811;19;20383;-62
2022/07/18 00:52:24;;;;;;;8.60;2.90;;;;;;;13.61;100.00;101704.09;7385304;19;20418;-61
2022/07/18 00:54:54;;;;;;;5.87;3.57;;;;;;;13.61;100.00;101718.75;7392449;19;20400;-62
2022/07/18 00:57:23;;;;;;;5.93;3.10;;;;;;;13.58;100.00;101729.88;7384370;19;20431;-61
2022/07/18 01:02:39;;;;;;;13.20;6.37;;;;;;;13.58;100.00;101766.16;7383728;19;20434;-61
2022/07/18 01:05:10;;;;;;;14.67;6.80;;;;;;;13.57;100.00;101790.31;7393477;19;20412;-62
2022/07/18 01:07:40;;;;;;;8.70;3.80;;;;;;;13.52;100.00;101784.03;7386589;19;20415;-62
2022/07/18 01:10:11;;;;;;;7.33;4.27;;;;;;;13.49;100.00;101777.00;7393222;19;20468;-62
2022/07/18 01:12:41;;;;;;;8.17;4.70;;;;;;;13.47;100.00;101754.41;7360763;19;20399;-62
2022/07/18 01:15:14;;;;;;;30.83;18.17;;;;;;;13.50;100.00;101767.53;7392996;19;20413;-62
2022/07/18 01:17:43;;;;;;;114.07;59.17;;;;;;;13.89;100.00;101801.25;7382467;19;20800;-62
2022/07/18 01:20:14;;;;;;;32.00;16.97;;;;;;;14.08;100.00;101828.03;7393064;19;20391;-62
2022/07/18 01:22:46;;;;;;;45.33;25.70;;;;;;;14.30;100.00;101727.72;7386473;19;20419;-62
2022/07/18 01:25:17;;;;;;;51.37;29.17;;;;;;;14.42;100.00;101681.50;7391220;19;20407;-61
2022/07/18 01:27:46;;;;;;;32.47;16.70;;;;;;;14.37;100.00;101649.31;7376427;19;20540;-60
2022/07/18 01:30:16;;;;;;;18.13;9.83;;;;;;;14.35;100.00;101626.72;7392630;19;20814;-62
2022/07/18 01:32:46;;;;;;;14.47;8.50;;;;;;;14.22;100.00;101617.53;7386121;19;20947;-62
2022/07/18 01:35:16;;;;;;;19.77;11.13;;;;;;;14.35;100.00;101632.75;7391012;19;20493;-62
2022/07/18 01:37:48;;;;;;;11.13;6.43;;;;;;;14.32;100.00;101596.31;7391503;19;20779;-61
2022/07/18 01:40:17;;;;;;;13.43;6.00;;;;;;;14.21;100.00;101566.44;7400380;19;20397;-62
2022/07/18 01:42:47;;;;;;;9.37;5.70;;;;;;;14.28;100.00;101558.06;7391593;19;20751;-62
2022/07/18 01:45:16;;;;;;;9.00;4.40;;;;;;;14.30;100.00;101551.22;7398403;19;20408;-62
2022/07/18 01:47:46;;;;;;;7.13;3.67;;;;;;;14.13;100.00;101548.88;7391493;19;20425;-61
2022/07/18 01:50:17;;;;;;;6.70;4.20;;;;;;;14.01;100.00;101559.63;7399641;19;20451;-61
2022/07/18 01:52:49;;;;;;;5.80;3.40;;;;;;;13.94;100.00;101590.47;7390995;19;20446;-62
2022/07/18 01:55:19;;;;;;;6.37;3.00;;;;;;;13.81;100.00;101602.94;7399132;19;20427;-61
2022/07/18 01:57:49;;;;;;;6.47;3.13;;;;;;;13.81;100.00;101626.28;7391701;19;20988;-62
2022/07/18 02:00:18;;;;;;;5.70;3.60;;;;;;;13.79;100.00;101634.81;7399290;19;20403;-60
2022/07/18 02:02:48;;;;;;;6.27;3.40;;;;;;;13.64;100.00;101636.78;7393059;19;20423;-61
2022/07/18 02:05:17;;;;;;;4.57;3.10;;;;;;;13.58;100.00;101659.88;7397607;19;20430;-61
2022/07/18 02:07:49;;;;;;;5.67;3.23;;;;;;;13.54;100.00;101667.44;7394759;19;20453;-62
2022/07/18 02:10:21;;;;;;;8.57;3.67;;;;;;;13.55;100.00;101698.63;7399187;19;20389;-62
2022/07/18 02:12:51;;;;;;;5.50;3.07;;;;;;;13.60;100.00;101711.78;7391499;19;20426;-60
2022/07/18 02:15:20;;;;;;;5.10;3.40;;;;;;;13.56;100.00;101708.19;7398740;19;20953;-60
2022/07/18 02:17:50;;;;;;;4.33;2.80;;;;;;;13.57;100.00;101737.56;7389055;19;20509;-62
2022/07/18 02:20:20;;;;;;;4.67;3.00;;;;;;;13.61;100.00;101744.69;7398833;19;20718;-61
2022/07/18 02:22:52;;;;;;;5.20;3.50;;;;;;;13.60;100.00;101754.16;7390436;19;20419;-63
2022/07/18 02:25:21;;;;;;;6.37;3.07;;;;;;;13.60;100.00;101750.69;7396941;19;20940;-62
2022/07/18 02:27:51;;;;;;;6.00;3.10;;;;;;;13.58;100.00;101758.38;7390916;19;20433;-62
2022/07/18 02:30:21;;;;;;;7.33;3.17;;;;;;;13.62;100.00;101756.81;7398326;19;20394;-61
2022/07/18 02:32:50;;;;;;;4.13;2.93;;;;;;;13.67;100.00;101738.88;7389867;19;20435;-60
2022/07/18 02:35:20;;;;;;;4.17;2.73;;;;;;;13.68;100.00;101717.31;7398228;19;20465;-62
2022/07/18 02:37:56;;;;;;;5.60;3.30;;;;;;;13.58;100.00;101696.16;7388412;19;20458;-62
2022/07/18 02:40:26;;;;;;;4.50;3.27;;;;;;;13.46;100.00;101700.81;7398133;19;20920;-62
2022/07/18 02:42:56;;;;;;;7.37;3.60;;;;;;;13.40;100.00;101724.72;7385816;19;20403;-62
2022/07/18 02:45:25;;;;;;;15.77;3.80;;;;;;;13.39;100.00;101742.78;7396340;19;20420;-62
2022/07/18 02:47:55;;;;;;;9.93;3.53;;;;;;;13.39;100.00;101742.78;7389715;19;20427;-62
2022/07/18 02:50:25;;;;;;;4.73;2.93;;;;;;;13.51;100.00;101774.50;7397658;19;20410;-61
2022/07/18 02:52:58;;;;;;;5.57;3.00;;;;;;;13.54;100.00;101773.75;7389400;19;20419;-62
2022/07/18 02:55:28;;;;;;;11.33;3.60;;;;;;;13.47;100.00;101772.56;7396159;19;20412;-62
2022/07/18 02:57:57;;;;;;;6.60;3.77;;;;;;;13.41;100.00;101787.78;7390170;19;20432;-62
2022/07/18 03:00:27;;;;;;;8.47;4.50;;;;;;;13.45;100.00;101803.59;7397258;19;20385;-62
2022/07/18 03:02:56;;;;;;;6.63;3.80;;;;;;;13.43;100.00;101806.91;7386348;19;20434;-61
2022/07/18 03:05:26;;;;;;;7.43;3.60;;;;;;;13.45;100.00;101834.69;7397814;19;20434;-62
2022/07/18 03:07:58;;;;;;;6.77;3.40;;;;;;;13.60;100.00;101826.75;7388860;19;20434;-62
2022/07/18 03:10:27;;;;;;;6.57;3.47;;;;;;;13.57;100.00;101802.38;7397419;19;20388;-61
2022/07/18 03:12:57;;;;;;;5.00;3.07;;;;;;;13.51;100.00;101810.78;7387650;19;20423;-61
2022/07/18 03:15:26;;;;;;;5.67;3.30;;;;;;;13.41;100.00;101827.56;7396799;19;20423;-62
2022/07/18 03:17:56;;;;;;;4.90;2.43;;;;;;;13.23;100.00;101853.50;7388302;19;20434;-62
2022/07/18 03:20:25;;;;;;;4.40;2.70;;;;;;;13.18;100.00;101976.78;7394440;19;20396;-62
2022/07/18 03:22:57;;;;;;;4.93;2.90;;;;;;;13.25;100.00;101997.00;7388038;19;20411;-62
2022/07/18 03:25:28;;;;;;;4.90;3.03;;;;;;;13.22;100.00;101994.25;7394655;19;20411;-62
2022/07/18 03:27:57;;;;;;;9.10;4.37;;;;;;;13.19;100.00;101999.28;7391048;19;20436;-62
2022/07/18 03:30:27;;;;;;;6.33;3.53;;;;;;;13.15;100.00;102015.47;7396276;19;20394;-62
2022/07/18 03:32:56;;;;;;;6.90;3.77;;;;;;;13.08;100.00;102051.44;7386767;19;20428;-62
2022/07/18 03:35:26;;;;;;;5.93;3.60;;;;;;;13.29;100.00;102089.66;7394432;19;20430;-62
2022/07/18 03:37:58;;;;;;;6.17;3.80;;;;;;;13.40;100.00;102094.50;7389247;19;20440;-61
2022/07/18 03:40:27;;;;;;;16.93;8.77;;;;;;;13.31;100.00;102076.75;7396066;19;20390;-62
2022/07/18 03:42:57;;;;;;;12.93;6.80;;;;;;;13.39;100.00;102079.75;7383682;19;20458;-62
2022/07/18 03:45:26;;;;;;;45.10;22.20;;;;;;;13.41;100.00;102085.91;7394220;19;20414;-61
2022/07/18 03:47:57;;;;;;;64.80;28.57;;;;;;;13.42;100.00;102092.84;7386733;19;20412;-62
2022/07/18 03:50:27;;;;;;;35.10;17.03;;;;;;;13.48;100.00;102100.97;7399394;19;20414;-61
2022/07/18 03:52:59;;;;;;;27.63;14.50;;;;;;;13.48;100.00;102111.34;7381647;19;20409;-62
2022/07/18 03:55:28;;;;;;;6.53;4.10;;;;;;;13.39;100.00;102105.69;7393676;19;20490;-62
2022/07/18 03:57:58;;;;;;;5.87;3.90;;;;;;;13.24;100.00;102127.41;7386927;19;20419;-61
2022/07/18 04:00:28;;;;;;;7.17;4.10;;;;;;;13.21;100.00;102156.63;7394444;19;20389;-61
2022/07/18 04:02:57;;;;;;;8.40;4.70;;;;;;;13.23;100.00;102180.06;7388055;19;20407;-62
2022/07/18 04:05:33;;;;;;;7.70;4.00;;;;;;;13.29;100.00;102207.97;7395298;19;20462;-61
2022/07/18 04:08:06;;;;;;;6.53;3.83;;;;;;;13.22;100.00;102219.69;7387370;19;20757;-62
2022/07/18 04:10:39;;;;;;;9.57;4.73;;;;;;;13.20;100.00;102232.59;7395238;19;20390;-62
2022/07/18 04:13:10;;;;;;;7.30;4.30;;;;;;;13.20;100.00;102236.88;7384553;19;20434;-62
2022/07/18 04:15:40;;;;;;;7.00;4.20;;;;;;;13.23;100.00;102244.84;7393275;19;20403;-62
2022/07/18 04:18:10;;;;;;;6.50;4.43;;;;;;;13.37;100.00;102242.97;7380708;19;20410;-62
2022/07/18 04:20:40;;;;;;;7.70;4.20;;;;;;;13.60;100.00;102231.25;7394672;19;20397;-61
2022/07/18 04:23:13;;;;;;;10.10;4.40;;;;;;;13.57;100.00;102215.56;7379782;19;20416;-62
2022/07/18 04:25:44;;;;;;;8.80;4.33;;;;;;;13.52;100.00;102211.81;7393005;19;20921;-61
2022/07/18 04:28:14;;;;;;;6.90;3.33;;;;;;;13.50;100.00;102209.16;7384316;19;20415;-62
2022/07/18 04:30:45;;;;;;;6.80;3.97;;;;;;;13.44;100.00;102208.78;7394335;19;20386;-61
2022/07/18 04:33:15;;;;;;;8.07;3.87;;;;;;;13.44;100.00;102203.59;7386152;19;20449;-62
2022/07/18 04:35:44;;;;;;;6.23;3.53;;;;;;;13.42;100.00;102194.88;7392153;19;20778;-62
2022/07/18 04:38:16;;;;;;;6.33;3.90;;;;;;;13.50;100.00;102203.09;7384493;19;20960;-62
2022/07/18 04:40:46;;;;;;;7.50;4.03;;;;;;;13.47;100.00;102203.81;7393951;19;20388;-62
2022/07/18 04:43:15;;;;;;;8.33;4.63;;;;;;;13.53;100.00;102207.53;7384324;19;20422;-61
2022/07/18 04:45:45;;;;;;;7.97;4.47;;;;;;;13.60;100.00;102207.94;7392660;19;20412;-61
2022/07/18 04:48:14;;;;;;;7.13;4.20;;;;;;;13.54;100.00;102207.59;7383951;19;20499;-62
2022/07/18 04:50:44;;;;;;;11.77;7.53;;;;;;;13.53;100.00;102213.59;7393452;19;20386;-62
2022/07/18 04:53:16;;;;;;;10.83;4.73;;;;;;;13.57;100.00;102214.66;7380124;19;20406;-62
2022/07/18 04:55:46;;;;;;;7.43;4.37;;;;;;;13.60;100.00;102226.06;7392373;19;20413;-61
2022/07/18 04:58:15;;;;;;;9.27;5.10;;;;;;;13.70;100.00;102216.22;7385084;19;21137;-61
2022/07/18 05:00:45;;;;;;;10.47;6.37;;;;;;;14.04;100.00;102217.94;7393638;19;20407;-61
2022/07/18 05:03:16;;;;;;;18.93;9.73;;;;;;;14.32;100.00;102194.25;7384351;19;20418;-62
2022/07/18 05:05:46;;;;;;;20.93;12.10;;;;;;;14.54;100.00;102152.84;7391858;19;20788;-61
2022/07/18 05:08:18;;;;;;;60.37;31.97;;;;;;;14.80;100.00;102090.88;7388185;19;20451;-61
2022/07/18 05:10:48;;;;;;;44.83;25.27;;;;;;;14.85;100.00;102025.31;7393484;19;20388;-62
2022/07/18 05:13:17;;;;;;;10.30;6.33;;;;;;;14.89;100.00;101953.59;7386978;19;20412;-62
2022/07/18 05:15:47;;;;;;;7.53;4.37;;;;;;;14.74;100.00;101913.91;7391587;19;20435;-62
2022/07/18 05:18:17;;;;;;;9.03;4.33;;;;;;;14.61;100.00;101908.19;7385197;19;20411;-61
2022/07/18 05:20:46;;;;;;;7.23;4.50;;;;;;;14.52;100.00;101941.56;7391246;19;20395;-62
2022/07/18 05:23:18;;;;;;;7.43;4.70;;;;;;;14.49;100.00;101963.09;7385376;19;20430;-61
2022/07/18 05:25:48;;;;;;;7.60;4.67;;;;;;;14.48;100.00;101981.19;7391088;19;20407;-60
2022/07/18 05:28:18;;;;;;;8.10;5.27;;;;;;;14.44;100.00;101988.84;7386214;19;20420;-61
2022/07/18 05:30:47;;;;;;;10.97;5.63;;;;;;;14.46;100.00;102007.06;7392792;19;20388;-62
2022/07/18 05:33:17;;;;;;;8.37;5.17;;;;;;;14.44;100.00;102009.63;7383247;19;20433;-62
2022/07/18 05:35:47;;;;;;;11.30;5.27;;;;;;;14.49;100.00;102020.22;7390626;19;20406;-61
2022/07/18 05:38:19;;;;;;;9.97;4.37;;;;;;;14.56;100.00;102018.78;7386083;19;20418;-62
2022/07/18 05:40:49;;;;;;;10.03;4.93;;;;;;;14.56;100.00;102021.38;7390997;19;20387;-61
2022/07/18 05:43:18;;;;;;;14.10;7.93;;;;;;;14.68;100.00;102021.91;7383700;19;20421;-61
2022/07/18 05:45:48;;;;;;;17.47;8.87;;;;;;;14.80;100.00;102015.53;7390518;19;20926;-62
2022/07/18 05:48:17;;;;;;;12.57;6.67;;;;;;;14.90;100.00;101994.34;7383239;19;20415;-61
2022/07/18 05:50:47;;;;;;;12.70;7.43;;;;;;;14.99;100.00;101968.75;7393346;19;20388;-61
2022/07/18 05:53:19;;;;;;;9.40;6.07;;;;;;;14.95;100.00;101948.66;7383674;19;20417;-62
2022/07/18 05:55:48;;;;;;;14.93;7.57;;;;;;;15.05;100.00;101949.03;7390428;19;20423;-62
2022/07/18 05:58:18;;;;;;;13.73;6.00;;;;;;;15.30;100.00;101913.66;7385169;19;20428;-63
2022/07/18 06:00:47;;;;;;;23.73;10.87;;;;;;;15.31;100.00;101874.72;7389795;19;20929;-63
2022/07/18 06:03:17;;;;;;;8.10;4.30;;;;;;;15.34;100.00;101833.25;7384571;19;20430;-61
2022/07/18 06:05:47;;;;;;;21.17;11.87;;;;;;;15.55;100.00;101821.03;7393332;19;20497;-61
2022/07/18 06:08:19;;;;;;;17.60;9.87;;;;;;;15.93;100.00;101746.13;7384260;19;20418;-61
2022/07/18 06:10:48;;;;;;;72.90;32.63;;;;;;;15.95;100.00;101669.03;7391924;19;20390;-63
2022/07/18 06:13:18;;;;;;;14.50;5.20;;;;;;;15.96;100.00;101625.66;7383759;19;20407;-61
2022/07/18 06:15:47;;;;;;;15.40;6.73;;;;;;;15.99;100.00;101595.41;7389676;19;20440;-62
2022/07/18 06:18:17;;;;;;;9.90;5.00;;;;;;;16.05;100.00;101558.28;7381720;19;21060;-61
2022/07/18 06:20:47;;;;;;;14.90;5.30;;;;;;;15.98;100.00;101488.63;7390013;19;20747;-63
2022/07/18 06:23:19;;;;;;;48.27;25.50;;;;;;;15.90;100.00;101507.47;7386860;19;20422;-61
2022/07/18 06:25:49;;;;;;;44.37;26.93;;;;;;;16.01;100.00;101494.81;7396550;19;20506;-62
2022/07/18 06:28:18;;;;;;;11.20;5.70;;;;;;;16.00;100.00;101477.44;7385606;19;20425;-62
2022/07/18 06:30:48;;;;;;;9.87;5.70;;;;;;;16.16;100.00;101384.22;7398851;19;20906;-61
2022/07/18 06:33:17;;;;;;;66.00;37.07;;;;;;;16.29;100.00;101333.38;7390737;19;20424;-62
2022/07/18 06:35:47;;;;;;;10.47;4.70;;;;;;;16.32;100.00;101318.72;7396146;19;20973;-62
2022/07/18 06:38:19;;;;;;;34.60;17.90;;;;;;;16.28;100.00;101301.25;7389158;19;20485;-61
2022/07/18 06:40:49;;;;;;;11.37;5.47;;;;;;;16.24;100.00;101288.13;7397153;19;20404;-62
2022/07/18 06:43:19;;;;;;;17.17;7.40;;;;;;;16.62;100.00;101288.25;7384733;19;20428;-61
2022/07/18 06:45:48;;;;;;;10.33;5.37;;;;;;;16.55;100.00;101286.28;7395854;19;20416;-62
2022/07/18 06:48:18;;;;;;;10.20;5.20;;;;;;;16.62;100.00;101284.75;7390549;19;20809;-62
2022/07/18 06:50:51;;;;;;;10.37;5.20;;;;;;;16.54;100.00;101279.31;7395777;19;20438;-63
2022/07/18 06:53:23;;;;;;;11.33;5.47;;;;;;;16.57;100.00;101288.09;7391471;19;20751;-62
2022/07/18 06:55:52;;;;;;;10.30;6.17;;;;;;;16.63;100.00;101296.91;7395734;19;20427;-61
2022/07/18 06:58:22;;;;;;;10.60;5.20;;;;;;;16.66;100.00;101325.66;7396261;19;20418;-61
2022/07/18 07:00:52;;;;;;;14.40;6.87;;;;;;;16.80;100.00;101339.91;7395820;19;20392;-61
2022/07/18 07:03:21;;;;;;;9.63;4.77;;;;;;;16.85;100.00;101366.97;7395863;19;20425;-61
2022/07/18 07:05:51;;;;;;;11.60;5.10;;;;;;;16.90;100.00;101387.03;7395483;19;20433;-60
2022/07/18 07:08:24;;;;;;;11.40;5.10;;;;;;;17.05;100.00;101384.88;7394728;19;20442;-61
2022/07/18 07:10:53;;;;;;;11.60;5.20;;;;;;;17.17;100.00;101386.88;7402175;19;20390;-62
2022/07/18 07:13:23;;;;;;;12.23;6.10;;;;;;;17.33;100.00;101449.88;7393616;19;20406;-61
2022/07/18 07:15:52;;;;;;;10.50;5.80;;;;;;;17.53;100.00;101510.31;7395181;19;20411;-61
2022/07/18 07:18:22;;;;;;;8.30;5.40;;;;;;;17.73;100.00;101589.09;7396573;19;20510;-63
2022/07/18 07:20:52;;;;;;;13.00;5.50;;;;;;;17.86;100.00;101634.69;7395839;19;20383;-61
2022/07/18 07:23:24;;;;;;;17.37;5.83;;;;;;;18.05;100.00;101695.19;7396299;19;20943;-62
2022/07/18 07:25:54;;;;;;;12.63;5.80;;;;;;;18.18;100.00;101707.75;7394906;19;20411;-62
2022/07/18 07:28:24;;;;;;;14.77;6.03;;;;;;;18.34;100.00;101727.31;7396046;19;20406;-61
2022/07/18 07:30:53;;;;;;;14.60;6.30;;;;;;;18.46;100.00;101767.66;7396615;19;20932;-62
2022/07/18 07:33:23;;;;;;;11.87;5.40;;;;;;;18.64;100.00;101793.34;7393113;19;20414;-62
2022/07/18 07:35:52;;;;;;;11.30;5.80;;;;;;;18.76;100.00;101816.28;7394254;19;20416;-62
2022/07/18 07:38:28;;;;;;;12.60;6.80;;;;;;;18.85;100.00;101829.59;7395139;19;20403;-62
2022/07/18 07:41:01;;;;;;;13.07;6.40;;;;;;;18.87;100.00;101840.94;7384672;19;20930;-61
2022/07/18 07:43:30;;;;;;;12.70;5.90;;;;;;;18.90;100.00;101866.28;7395451;19;20402;-63
2022/07/18 07:46:00;;;;;;;10.83;5.20;;;;;;;19.07;100.00;101877.19;7386144;19;20415;-62
2022/07/18 07:48:30;;;;;;;10.57;5.43;;;;;;;19.20;100.00;101891.47;7395402;19;20388;-61
2022/07/18 07:50:59;;;;;;;11.83;6.40;;;;;;;19.45;100.00;101902.50;7390752;19;20387;-62
2022/07/18 07:53:31;;;;;;;16.90;6.03;;;;;;;19.49;100.00;101909.56;7394684;19;20375;-61
2022/07/18 07:56:01;;;;;;;14.57;6.53;;;;;;;19.46;100.00;101919.06;7384916;19;20407;-61
2022/07/18 07:58:31;;;;;;;11.60;5.70;;;;;;;19.43;100.00;101933.88;7395427;19;20727;-62
2022/07/18 08:01:01;;;;;;;12.93;5.57;;;;;;;19.35;100.00;101952.84;7387163;19;20386;-61
2022/07/18 08:03:30;;;;;;;15.80;5.77;;;;;;;19.39;100.00;101941.63;7395204;19;20384;-62
2022/07/18 08:06:00;;;;;;;14.23;6.33;;;;;;;19.53;100.00;101953.28;7386285;19;20420;-62
2022/07/18 08:08:32;;;;;;;14.63;6.50;;;;;;;19.65;100.00;101946.56;7397619;19;20470;-62
2022/07/18 08:11:02;;;;;;;9.90;5.73;;;;;;;19.72;100.00;101965.91;7386626;19;20420;-62
2022/07/18 08:13:31;;;;;;;13.83;6.37;;;;;;;19.86;100.00;102009.00;7395162;19;20728;-61
2022/07/18 08:16:01;;;;;;;13.60;6.67;;;;;;;20.02;100.00;102036.47;7382401;19;20423;-62
2022/07/18 08:18:31;;;;;;;13.10;6.67;;;;;;;20.26;100.00;102053.59;7394512;19;20730;-63
2022/07/18 08:21:00;;;;;;;13.07;6.80;;;;;;;20.24;100.00;102084.09;7386800;19;20398;-62
2022/07/18 08:23:32;;;;;;;12.00;6.33;;;;;;;20.44;100.00;102083.66;7394424;19;20388;-62
2022/07/18 08:26:02;;;;;;;14.63;6.60;;;;;;;20.64;100.00;102082.38;7384514;19;20407;-62
2022/07/18 08:28:31;;;;;;;11.00;6.13;;;;;;;20.76;100.00;102078.19;7394246;19;20376;-61
2022/07/18 08:31:01;;;;;;;13.43;6.97;;;;;;;20.78;100.00;102087.00;7384492;19;20399;-62
2022/07/18 08:33:30;;;;;;;12.70;6.07;;;;;;;20.77;100.00;102114.09;7394162;19;20384;-62
2022/07/18 08:36:00;;;;;;;10.40;5.83;;;;;;;20.93;100.00;102110.06;7384858;19;20407;-61
2022/07/18 08:38:32;;;;;;;16.53;6.00;;;;;;;21.01;100.00;102108.47;7393696;19;20388;-61
2022/07/18 08:41:03;;;;;;;10.63;5.67;;;;;;;20.91;100.00;102115.28;7386658;19;20447;-62
2022/07/18 08:43:33;;;;;;;13.50;5.60;;;;;;;21.11;100.00;102100.75;7394143;19;20419;-63
2022/07/18 08:46:05;;;;;;;22.77;9.03;;;;;;;21.09;100.00;102124.38;7385164;19;20510;-62
2022/07/18 08:48:35;;;;;;;31.80;10.03;;;;;;;21.19;100.00;102128.06;7398148;19;20387;-62
2022/07/18 08:51:05;;;;;;;19.93;8.50;;;;;;;21.29;100.00;102142.22;7387123;19;20990;-61
2022/07/18 08:53:38;;;;;;;11.60;5.30;;;;;;;21.23;100.00;102142.13;7395192;19;20413;-62
2022/07/18 08:56:08;;;;;;;14.10;6.30;;;;;;;21.15;100.00;102139.34;7383960;19;20403;-61
2022/07/18 08:58:38;;;;;;;19.97;8.90;;;;;;;21.17;100.00;102154.25;7393369;19;20388;-61
2022/07/18 09:01:14;;;;;;;25.17;8.40;;;;;;;21.20;100.00;102163.03;7387237;19;20951;-62
2022/07/18 09:03:46;;;;;;;11.40;5.60;;;;;;;21.30;100.00;102165.00;7393339;19;20380;-62
2022/07/18 09:06:16;;;;;;;15.07;6.90;;;;;;;21.44;100.00;102175.78;7384162;19;20447;-61
2022/07/18 09:09:04;;;;;;;10.50;5.60;;;;;;;21.55;100.00;102176.84;7393874;19;20471;-62
2022/07/18 09:11:33;;;;;;;21.47;8.33;;;;;;;21.54;100.00;102179.44;7377992;19;20407;-61
2022/07/18 09:14:42;;;;;;;10.70;6.00;;;;;;;21.66;100.00;102189.28;7392288;19;20471;-61
2022/07/18 09:17:14;;;;;;;13.10;6.27;;;;;;;21.91;100.00;102185.41;7384954;19;20419;-61
2022/07/18 09:19:45;;;;;;;13.87;5.50;;;;;;;22.15;100.00;102196.28;7396008;19;20384;-62
2022/07/18 09:22:21;;;;;;;14.97;6.20;;;;;;;22.20;100.00;102200.75;7383900;19;20414;-61
2022/07/18 09:24:59;;;;;;;10.53;6.07;;;;;;;22.30;100.00;102207.03;7392576;19;20725;-61
2022/07/18 09:27:31;;;;;;;17.70;7.20;;;;;;;22.19;100.00;102212.13;7384851;19;20407;-61
2022/07/18 09:30:18;;;;;;;21.17;8.60;;;;;;;22.06;100.00;102223.28;7392537;19;20394;-61
2022/07/18 09:32:52;;;;;;;16.30;8.23;;;;;;;22.08;100.00;102229.44;7383198;19;20486;-61
2022/07/18 09:35:26;;;;;;;13.97;6.70;;;;;;;22.39;100.00;102233.47;7390880;19;20415;-63
2022/07/18 09:37:58;;;;;;;30.87;20.00;;;;;;;22.60;100.00;102225.94;7379125;19;20419;-62
2022/07/18 09:40:32;;;;;;;16.37;6.20;;;;;;;22.62;100.00;102237.34;7393104;19;20485;-63
2022/07/18 09:43:03;;;;;;;11.77;6.30;;;;;;;22.74;100.00;102232.25;7384392;19;20450;-62
2022/07/18 09:45:35;;;;;;;8.77;5.00;;;;;;;22.69;100.00;102223.41;7385766;19;20427;-62
2022/07/18 09:48:06;;;;;;;11.43;6.57;;;;;;;22.75;100.00;102226.13;7380036;19;20422;-61
2022/07/18 09:50:37;;;;;;;8.63;4.83;;;;;;;22.58;100.00;102222.38;7388281;19;20395;-62
2022/07/18 09:53:13;;;;;;;8.23;4.30;;;;;;;22.41;100.00;102225.63;7380139;19;20429;-61
2022/07/18 09:56:06;;;;;;;9.63;4.70;;;;;;;22.74;100.00;102226.09;7378721;19;20431;-63
2022/07/18 09:58:38;;;;;;;8.87;4.13;;;;;;;22.82;100.00;102223.59;7396593;19;20395;-62
2022/07/18 10:01:11;;;;;;;10.63;4.07;;;;;;;22.63;100.00;102225.97;7388807;19;20379;-62
2022/07/18 10:03:41;;;;;;;8.67;4.03;;;;;;;22.68;100.00;102226.91;7397144;19;20404;-62
2022/07/18 10:06:12;;;;;;;7.60;4.40;;;;;;;22.82;100.00;102226.22;7378215;19;20785;-62
2022/07/18 10:08:41;;;;;;;8.33;4.40;;;;;;;22.84;100.00;102216.59;7396288;19;20393;-62
2022/07/18 10:11:13;;;;;;;5.80;3.50;;;;;;;22.90;100.00;102216.69;7391408;19;20391;-63
2022/07/18 10:13:43;;;;;;;11.43;5.00;;;;;;;23.02;100.00;102206.31;7397855;19;20371;-61
2022/07/18 10:16:13;;;;;;;7.03;4.40;;;;;;;23.14;100.00;102187.19;7387163;19;20407;-62
2022/07/18 10:18:42;;;;;;;6.90;3.73;;;;;;;23.13;100.00;102181.88;7397575;19;20387;-63
2022/07/18 10:21:14;;;;;;;7.63;4.70;;;;;;;23.39;100.00;102178.69;7390114;19;20384;-62
2022/07/18 10:23:46;;;;;;;7.23;3.57;;;;;;;23.36;100.00;102157.59;7398382;19;20396;-63
2022/07/18 10:26:24;;;;;;;10.00;4.10;;;;;;;23.45;100.00;102153.31;7388110;19;20411;-62
2022/07/18 10:29:12;;;;;;;7.00;3.87;;;;;;;23.65;100.00;102138.56;7397573;19;20379;-61
2022/07/18 10:31:46;;;;;;;8.40;3.77;;;;;;;23.75;100.00;102129.88;7388842;19;20419;-61
2022/07/18 10:34:15;;;;;;;10.53;4.23;;;;;;;23.71;100.00;102125.44;7396637;19;20906;-62
2022/07/18 10:37:10;;;;;;;8.30;4.20;;;;;;;23.80;100.00;102136.06;7387659;19;20415;-63
2022/07/18 10:39:42;;;;;;;9.00;4.10;;;;;;;23.80;100.00;102114.09;7401710;19;20931;-63
2022/07/18 10:42:20;;;;;;;7.27;4.50;;;;;;;23.90;100.00;102107.16;7387725;19;20797;-63
2022/07/18 10:44:50;;;;;;;10.00;4.47;;;;;;;23.84;100.00;102114.13;7396700;19;20405;-62
2022/07/18 10:47:20;;;;;;;8.60;5.07;;;;;;;23.79;100.00;102120.25;7391581;19;20411;-63
2022/07/18 10:50:11;;;;;;;8.23;4.30;;;;;;;23.66;100.00;102095.53;7397703;19;20387;-61
2022/07/18 10:53:02;;;;;;;10.67;4.00;;;;;;;23.78;100.00;102098.28;7388831;19;20427;-63
2022/07/18 10:55:40;;;;;;;8.03;4.67;;;;;;;23.94;100.00;102087.88;7396207;19;20773;-62
2022/07/18 10:58:24;;;;;;;8.30;4.50;;;;;;;23.94;100.00;102085.22;7390631;19;20498;-62
2022/07/18 11:01:05;;;;;;;10.20;5.57;;;;;;;24.01;100.00;102063.31;7389710;19;20391;-61
2022/07/18 11:03:34;;;;;;;7.90;4.07;;;;;;;23.90;100.00;102065.00;7395588;19;20779;-62
2022/07/18 11:06:04;;;;;;;11.83;5.67;;;;;;;23.82;100.00;102049.13;7389372;19;20773;-62
2022/07/18 11:08:34;;;;;;;9.60;4.73;;;;;;;23.84;100.00;102036.88;7396640;19;20517;-61
2022/07/18 11:11:08;;;;;;;7.50;4.83;;;;;;;23.81;100.00;102043.00;7391794;19;20483;-62
2022/07/18 11:13:43;;;;;;;11.50;5.10;;;;;;;23.84;100.00;102029.81;7399800;19;20402;-62
2022/07/18 11:16:14;;;;;;;10.60;5.03;;;;;;;24.02;100.00;102028.19;7389249;19;20422;-63
2022/07/18 11:19:17;;;;;;;11.87;5.17;;;;;;;24.08;100.00;102022.97;7397439;19;20406;-63
2022/07/18 11:21:47;;;;;;;9.30;5.40;;;;;;;24.17;100.00;102021.25;7369900;19;20755;-60
2022/07/18 11:24:17;;;;;;;7.00;4.70;;;;;;;24.30;100.00;101994.06;7396137;19;20411;-61
2022/07/18 11:26:48;;;;;;;11.33;5.40;;;;;;;24.37;100.00;101993.22;7388486;19;20407;-59
2022/07/18 11:29:22;;;;;;;8.70;5.17;;;;;;;24.42;99.72;101980.06;7396885;19;20794;-62
2022/07/18 11:31:53;;;;;;;12.70;4.83;;;;;;;24.52;100.00;102000.28;7387645;19;20426;-63
2022/07/18 11:34:23;;;;;;;11.00;5.00;;;;;;;24.43;100.00;101984.44;7395494;19;20384;-62